Airfield :
LOGIN :

Register | Disclaimer

   EN    FR    IT 

 










Legend :    VFR   Marginal VFR   IFR   Intensive IFR   Very Intensive IFR
Visi :
Ceiling :
>= 8 km
>= 3000ft
5 to 8 km
1000 to 3000 ft
1500m to 5 km
500 to 1000 ft
800 to 1500m
200 to 500 ft
< 800m
< 200 ft
Symbols :   Thunderstorms  Fog  Heavy snow  Heavy precipitations  Wind > 20 kt
SIGMETs :     Misc.  Thunderstorms  Icing  Turbulence  Mountain Waves  Volcanic Ashes






- Airport Elevation : 1066 ft


EGOM - RAF Spadeadam

CURRENT METAR :
  • 170120Z AUTO 27007KT 0900 // OVC001/// 10/10 Q1002

EXPIRED METARs :
  • 170050Z AUTO 26007KT 0800 RA OVC001/// 10/10 Q1001
  • 170020Z AUTO 26008KT 2500 -DZ OVC001/// 10/10 Q1001
  • 162350Z AUTO 26007KT 3000 // OVC001/// 10/10 Q1001
  • 162320Z AUTO 26008KT 3800 FG OVC001/// 10/10 Q1001
  • 162250Z AUTO 26008KT 4400 -RA OVC001/// 11/10 Q1001
  • 162220Z AUTO 27009KT 5000 // OVC001/// 11/11 Q1000
  • 162150Z AUTO 27009KT 9999 // BKN003/// OVC051/// 11/11 Q1000
  • 162120Z AUTO 27010KT 4700 -RA SCT002/// SCT010/// 11/11 Q1000
  • 162050Z AUTO 27010KT 9999 -RA OVC001/// 11/11 Q1000

Expired Forecast.



MET'MAP, your aeronautical weather chart ! - Copyright ORBIFLY December 2007 - Disclaimer

ORBIFLY MET'MAP TEAM :

Programming & Development : Alexandra Zaïnal
Original concept : Baudouin d'Aumeries
Technical & hardware support : Manuel Goepfert
Assistance : Marc-Olivier Méhu




SOURCES & CREDITS :

   NOAA